sensor_id;sensor_type;location;lat;lon;timestamp;temperature;humidity
15099;DHT22;33900;53.640;9.942;2022-12-07T00:01:11;7.50;92.50
15099;DHT22;33900;53.640;9.942;2022-12-07T00:03:39;7.50;92.50
15099;DHT22;33900;53.640;9.942;2022-12-07T00:06:06;7.40;92.90
15099;DHT22;33900;53.640;9.942;2022-12-07T00:08:32;7.40;92.90
15099;DHT22;33900;53.640;9.942;2022-12-07T00:11:05;7.40;92.60
15099;DHT22;33900;53.640;9.942;2022-12-07T00:13:32;7.40;93.00
15099;DHT22;33900;53.640;9.942;2022-12-07T00:16:05;7.40;92.60
15099;DHT22;33900;53.640;9.942;2022-12-07T00:18:31;7.40;92.70
15099;DHT22;33900;53.640;9.942;2022-12-07T00:21:01;7.40;92.70
15099;DHT22;33900;53.640;9.942;2022-12-07T00:23:27;7.40;92.70
15099;DHT22;33900;53.640;9.942;2022-12-07T00:25:52;7.30;92.70
15099;DHT22;33900;53.640;9.942;2022-12-07T00:28:18;7.30;92.70
15099;DHT22;33900;53.640;9.942;2022-12-07T00:30:44;7.30;92.80
15099;DHT22;33900;53.640;9.942;2022-12-07T00:33:09;7.30;92.80
15099;DHT22;33900;53.640;9.942;2022-12-07T00:35:35;7.30;92.80
15099;DHT22;33900;53.640;9.942;2022-12-07T00:38:04;7.30;92.80
15099;DHT22;33900;53.640;9.942;2022-12-07T00:40:29;7.30;92.90
15099;DHT22;33900;53.640;9.942;2022-12-07T00:42:55;7.30;92.80
15099;DHT22;33900;53.640;9.942;2022-12-07T00:45:21;7.30;92.90
15099;DHT22;33900;53.640;9.942;2022-12-07T00:47:47;7.20;92.80
15099;DHT22;33900;53.640;9.942;2022-12-07T00:50:13;7.20;92.80
15099;DHT22;33900;53.640;9.942;2022-12-07T00:52:41;7.20;92.90
15099;DHT22;33900;53.640;9.942;2022-12-07T00:55:07;7.20;92.90
15099;DHT22;33900;53.640;9.942;2022-12-07T00:57:35;7.20;92.90
15099;DHT22;33900;53.640;9.942;2022-12-07T01:00:01;7.20;92.90
15099;DHT22;33900;53.640;9.942;2022-12-07T01:02:29;7.20;92.90
15099;DHT22;33900;53.640;9.942;2022-12-07T01:04:55;7.20;93.00
15099;DHT22;33900;53.640;9.942;2022-12-07T01:07:21;7.20;93.00
15099;DHT22;33900;53.640;9.942;2022-12-07T01:09:46;7.20;93.10
15099;DHT22;33900;53.640;9.942;2022-12-07T01:12:12;7.20;93.10
15099;DHT22;33900;53.640;9.942;2022-12-07T01:14:38;7.20;93.10
15099;DHT22;33900;53.640;9.942;2022-12-07T01:17:04;7.20;93.10
15099;DHT22;33900;53.640;9.942;2022-12-07T01:19:33;7.20;93.10
15099;DHT22;33900;53.640;9.942;2022-12-07T01:21:58;7.20;93.10
15099;DHT22;33900;53.640;9.942;2022-12-07T01:24:24;7.20;93.10
15099;DHT22;33900;53.640;9.942;2022-12-07T01:26:49;7.20;93.10
15099;DHT22;33900;53.640;9.942;2022-12-07T01:29:16;7.20;93.10
15099;DHT22;33900;53.640;9.942;2022-12-07T01:31:48;7.20;93.20
15099;DHT22;33900;53.640;9.942;2022-12-07T01:34:13;7.20;93.10
15099;DHT22;33900;53.640;9.942;2022-12-07T01:36:39;7.20;93.20
15099;DHT22;33900;53.640;9.942;2022-12-07T01:39:06;7.20;93.10
15099;DHT22;33900;53.640;9.942;2022-12-07T01:41:36;7.20;93.20
15099;DHT22;33900;53.640;9.942;2022-12-07T01:46:34;7.10;93.20
15099;DHT22;33900;53.640;9.942;2022-12-07T01:49:00;7.10;93.20
15099;DHT22;33900;53.640;9.942;2022-12-07T01:51:26;7.10;93.10
15099;DHT22;33900;53.640;9.942;2022-12-07T01:53:52;7.10;93.10
15099;DHT22;33900;53.640;9.942;2022-12-07T01:56:19;7.10;93.20
15099;DHT22;33900;53.640;9.942;2022-12-07T01:58:51;7.10;93.20
15099;DHT22;33900;53.640;9.942;2022-12-07T02:01:17;7.10;93.20
15099;DHT22;33900;53.640;9.942;2022-12-07T02:03:43;7.10;93.20
15099;DHT22;33900;53.640;9.942;2022-12-07T02:06:10;7.00;93.20
15099;DHT22;33900;53.640;9.942;2022-12-07T02:08:36;7.00;93.10
15099;DHT22;33900;53.640;9.942;2022-12-07T02:11:05;7.00;93.20
15099;DHT22;33900;53.640;9.942;2022-12-07T02:13:33;7.00;93.20
15099;DHT22;33900;53.640;9.942;2022-12-07T02:16:03;7.00;93.20
15099;DHT22;33900;53.640;9.942;2022-12-07T02:26:35;6.90;93.20
15099;DHT22;33900;53.640;9.942;2022-12-07T02:29:10;6.90;93.20
15099;DHT22;33900;53.640;9.942;2022-12-07T02:31:37;6.90;93.20
15099;DHT22;33900;53.640;9.942;2022-12-07T02:34:12;6.90;93.20
15099;DHT22;33900;53.640;9.942;2022-12-07T02:36:45;6.90;93.20
15099;DHT22;33900;53.640;9.942;2022-12-07T02:39:17;6.90;93.20
15099;DHT22;33900;53.640;9.942;2022-12-07T02:41:48;6.90;93.20
15099;DHT22;33900;53.640;9.942;2022-12-07T02:44:20;6.80;93.50
15099;DHT22;33900;53.640;9.942;2022-12-07T02:47:07;6.80;93.20
15099;DHT22;33900;53.640;9.942;2022-12-07T02:49:33;6.80;93.20
15099;DHT22;33900;53.640;9.942;2022-12-07T02:51:59;6.80;93.20
15099;DHT22;33900;53.640;9.942;2022-12-07T02:54:24;6.80;93.20
15099;DHT22;33900;53.640;9.942;2022-12-07T02:57:37;6.70;93.10
15099;DHT22;33900;53.640;9.942;2022-12-07T03:05:18;6.70;93.10
15099;DHT22;33900;53.640;9.942;2022-12-07T03:13:04;6.60;93.10
15099;DHT22;33900;53.640;9.942;2022-12-07T03:15:54;6.60;93.10
15099;DHT22;33900;53.640;9.942;2022-12-07T03:18:18;6.60;93.10
15099;DHT22;33900;53.640;9.942;2022-12-07T03:20:47;6.60;93.10
15099;DHT22;33900;53.640;9.942;2022-12-07T03:23:17;6.60;93.10
15099;DHT22;33900;53.640;9.942;2022-12-07T03:25:47;6.50;93.10
15099;DHT22;33900;53.640;9.942;2022-12-07T03:28:14;6.50;93.10
15099;DHT22;33900;53.640;9.942;2022-12-07T03:30:46;6.50;93.10
15099;DHT22;33900;53.640;9.942;2022-12-07T03:33:13;6.50;93.10
15099;DHT22;33900;53.640;9.942;2022-12-07T03:35:48;6.50;93.10
15099;DHT22;33900;53.640;9.942;2022-12-07T03:40:47;6.40;93.00
15099;DHT22;33900;53.640;9.942;2022-12-07T03:43:15;6.40;93.00
15099;DHT22;33900;53.640;9.942;2022-12-07T03:48:40;6.40;93.00
15099;DHT22;33900;53.640;9.942;2022-12-07T03:51:12;6.40;93.00
15099;DHT22;33900;53.640;9.942;2022-12-07T03:53:44;6.40;93.00
15099;DHT22;33900;53.640;9.942;2022-12-07T03:56:12;6.30;93.00
15099;DHT22;33900;53.640;9.942;2022-12-07T03:58:40;6.30;93.30
15099;DHT22;33900;53.640;9.942;2022-12-07T04:01:07;6.30;93.00
15099;DHT22;33900;53.640;9.942;2022-12-07T04:03:32;6.30;93.00
15099;DHT22;33900;53.640;9.942;2022-12-07T04:06:01;6.30;93.00
15099;DHT22;33900;53.640;9.942;2022-12-07T04:08:27;6.20;93.00
15099;DHT22;33900;53.640;9.942;2022-12-07T04:10:53;6.20;93.00
15099;DHT22;33900;53.640;9.942;2022-12-07T04:13:19;6.20;93.00
15099;DHT22;33900;53.640;9.942;2022-12-07T04:15:44;6.20;93.00
15099;DHT22;33900;53.640;9.942;2022-12-07T04:18:10;6.20;93.00
15099;DHT22;33900;53.640;9.942;2022-12-07T04:20:36;6.20;93.00
15099;DHT22;33900;53.640;9.942;2022-12-07T04:23:01;6.10;93.00
15099;DHT22;33900;53.640;9.942;2022-12-07T04:25:27;6.10;93.00
15099;DHT22;33900;53.640;9.942;2022-12-07T04:27:53;6.20;93.00
15099;DHT22;33900;53.640;9.942;2022-12-07T04:30:21;6.10;93.00
15099;DHT22;33900;53.640;9.942;2022-12-07T04:32:47;6.10;93.00
15099;DHT22;33900;53.640;9.942;2022-12-07T04:35:13;6.10;93.00
15099;DHT22;33900;53.640;9.942;2022-12-07T04:37:39;6.10;93.00
15099;DHT22;33900;53.640;9.942;2022-12-07T04:40:06;6.10;93.00
15099;DHT22;33900;53.640;9.942;2022-12-07T04:42:32;6.10;93.00
15099;DHT22;33900;53.640;9.942;2022-12-07T04:45:01;6.10;93.00
15099;DHT22;33900;53.640;9.942;2022-12-07T04:47:30;6.10;93.00
15099;DHT22;33900;53.640;9.942;2022-12-07T04:49:55;6.00;92.90
15099;DHT22;33900;53.640;9.942;2022-12-07T04:52:21;6.00;93.30
15099;DHT22;33900;53.640;9.942;2022-12-07T04:54:50;6.00;92.90
15099;DHT22;33900;53.640;9.942;2022-12-07T04:57:15;6.00;92.90
15099;DHT22;33900;53.640;9.942;2022-12-07T04:59:41;6.00;92.90
15099;DHT22;33900;53.640;9.942;2022-12-07T05:02:07;6.10;93.00
15099;DHT22;33900;53.640;9.942;2022-12-07T05:04:33;6.00;92.90
15099;DHT22;33900;53.640;9.942;2022-12-07T05:06:58;5.90;92.90
15099;DHT22;33900;53.640;9.942;2022-12-07T05:09:24;5.90;92.90
15099;DHT22;33900;53.640;9.942;2022-12-07T05:11:50;5.90;92.90
15099;DHT22;33900;53.640;9.942;2022-12-07T05:14:19;6.00;93.00
15099;DHT22;33900;53.640;9.942;2022-12-07T05:16:46;5.90;92.90
15099;DHT22;33900;53.640;9.942;2022-12-07T05:19:12;5.90;92.90
15099;DHT22;33900;53.640;9.942;2022-12-07T05:21:38;5.90;92.90
15099;DHT22;33900;53.640;9.942;2022-12-07T05:24:04;5.90;92.90
15099;DHT22;33900;53.640;9.942;2022-12-07T05:26:31;5.90;92.90
15099;DHT22;33900;53.640;9.942;2022-12-07T05:28:56;5.90;92.90
15099;DHT22;33900;53.640;9.942;2022-12-07T05:31:23;5.90;92.90
15099;DHT22;33900;53.640;9.942;2022-12-07T05:33:49;5.90;92.90
15099;DHT22;33900;53.640;9.942;2022-12-07T05:36:14;5.80;92.90
15099;DHT22;33900;53.640;9.942;2022-12-07T05:38:40;5.80;92.90
15099;DHT22;33900;53.640;9.942;2022-12-07T05:41:06;5.80;92.90
15099;DHT22;33900;53.640;9.942;2022-12-07T05:43:32;5.80;92.90
15099;DHT22;33900;53.640;9.942;2022-12-07T05:45:58;5.80;92.90
15099;DHT22;33900;53.640;9.942;2022-12-07T05:48:27;5.80;92.90
15099;DHT22;33900;53.640;9.942;2022-12-07T05:50:52;5.80;92.90
15099;DHT22;33900;53.640;9.942;2022-12-07T05:53:19;5.80;92.90
15099;DHT22;33900;53.640;9.942;2022-12-07T05:55:46;5.80;92.90
15099;DHT22;33900;53.640;9.942;2022-12-07T05:58:13;5.80;92.90
15099;DHT22;33900;53.640;9.942;2022-12-07T06:00:57;5.80;92.90
15099;DHT22;33900;53.640;9.942;2022-12-07T06:03:23;5.80;92.90
15099;DHT22;33900;53.640;9.942;2022-12-07T06:05:49;5.70;92.90
15099;DHT22;33900;53.640;9.942;2022-12-07T06:08:14;5.70;92.90
15099;DHT22;33900;53.640;9.942;2022-12-07T06:10:40;5.70;92.90
15099;DHT22;33900;53.640;9.942;2022-12-07T06:13:37;5.70;92.90
15099;DHT22;33900;53.640;9.942;2022-12-07T06:16:03;5.70;92.90
15099;DHT22;33900;53.640;9.942;2022-12-07T06:18:29;5.70;92.90
15099;DHT22;33900;53.640;9.942;2022-12-07T06:20:55;5.70;92.90
15099;DHT22;33900;53.640;9.942;2022-12-07T06:23:21;5.70;92.90
15099;DHT22;33900;53.640;9.942;2022-12-07T06:25:46;5.70;92.90
15099;DHT22;33900;53.640;9.942;2022-12-07T06:28:15;5.70;92.90
15099;DHT22;33900;53.640;9.942;2022-12-07T06:30:41;5.70;92.90
15099;DHT22;33900;53.640;9.942;2022-12-07T06:33:07;5.70;92.90
15099;DHT22;33900;53.640;9.942;2022-12-07T06:35:35;5.70;92.90
15099;DHT22;33900;53.640;9.942;2022-12-07T06:38:01;5.60;92.90
15099;DHT22;33900;53.640;9.942;2022-12-07T06:40:29;5.60;92.90
15099;DHT22;33900;53.640;9.942;2022-12-07T06:42:56;5.60;92.90
15099;DHT22;33900;53.640;9.942;2022-12-07T06:45:23;5.60;92.90
15099;DHT22;33900;53.640;9.942;2022-12-07T06:47:48;5.60;92.90
15099;DHT22;33900;53.640;9.942;2022-12-07T06:50:15;5.60;92.90
15099;DHT22;33900;53.640;9.942;2022-12-07T06:52:42;5.70;92.90
15099;DHT22;33900;53.640;9.942;2022-12-07T06:55:09;5.70;93.00
15099;DHT22;33900;53.640;9.942;2022-12-07T06:57:36;5.70;93.00
15099;DHT22;33900;53.640;9.942;2022-12-07T07:00:04;5.70;93.00
15099;DHT22;33900;53.640;9.942;2022-12-07T07:02:30;5.70;93.10
15099;DHT22;33900;53.640;9.942;2022-12-07T07:04:56;5.70;93.00
15099;DHT22;33900;53.640;9.942;2022-12-07T07:07:21;5.80;93.00
15099;DHT22;33900;53.640;9.942;2022-12-07T07:09:47;5.80;93.00
15099;DHT22;33900;53.640;9.942;2022-12-07T07:12:12;5.80;93.10
15099;DHT22;33900;53.640;9.942;2022-12-07T07:14:39;5.80;93.10
15099;DHT22;33900;53.640;9.942;2022-12-07T07:17:04;5.80;93.00
15099;DHT22;33900;53.640;9.942;2022-12-07T07:19:30;5.80;93.00
15099;DHT22;33900;53.640;9.942;2022-12-07T07:21:56;5.80;93.00
15099;DHT22;33900;53.640;9.942;2022-12-07T07:24:22;5.80;93.10
15099;DHT22;33900;53.640;9.942;2022-12-07T07:26:47;5.90;93.10
15099;DHT22;33900;53.640;9.942;2022-12-07T07:29:15;5.90;93.10
15099;DHT22;33900;53.640;9.942;2022-12-07T07:31:41;5.90;93.10
15099;DHT22;33900;53.640;9.942;2022-12-07T07:34:07;5.90;93.30
15099;DHT22;33900;53.640;9.942;2022-12-07T07:36:32;5.90;93.10
15099;DHT22;33900;53.640;9.942;2022-12-07T07:38:58;5.90;93.10
15099;DHT22;33900;53.640;9.942;2022-12-07T07:41:24;5.90;93.10
15099;DHT22;33900;53.640;9.942;2022-12-07T07:43:50;5.90;93.60
15099;DHT22;33900;53.640;9.942;2022-12-07T07:46:15;6.00;93.20
15099;DHT22;33900;53.640;9.942;2022-12-07T07:48:41;6.00;93.20
15099;DHT22;33900;53.640;9.942;2022-12-07T07:51:07;6.00;93.10
15099;DHT22;33900;53.640;9.942;2022-12-07T07:53:33;6.00;93.20
15099;DHT22;33900;53.640;9.942;2022-12-07T07:55:59;6.00;93.20
15099;DHT22;33900;53.640;9.942;2022-12-07T07:58:25;6.00;93.20
15099;DHT22;33900;53.640;9.942;2022-12-07T08:00:50;6.00;93.20
15099;DHT22;33900;53.640;9.942;2022-12-07T08:03:16;6.00;93.20
15099;DHT22;33900;53.640;9.942;2022-12-07T08:05:42;6.00;93.20
15099;DHT22;33900;53.640;9.942;2022-12-07T08:08:08;6.00;93.20
15099;DHT22;33900;53.640;9.942;2022-12-07T08:10:33;6.00;93.10
15099;DHT22;33900;53.640;9.942;2022-12-07T08:13:00;6.00;93.20
15099;DHT22;33900;53.640;9.942;2022-12-07T08:15:46;6.10;93.20
15099;DHT22;33900;53.640;9.942;2022-12-07T08:18:12;6.10;93.20
15099;DHT22;33900;53.640;9.942;2022-12-07T08:20:39;6.10;93.20
15099;DHT22;33900;53.640;9.942;2022-12-07T08:23:11;6.10;93.20
15099;DHT22;33900;53.640;9.942;2022-12-07T08:25:37;6.10;93.20
15099;DHT22;33900;53.640;9.942;2022-12-07T08:28:03;6.10;93.20
15099;DHT22;33900;53.640;9.942;2022-12-07T08:30:29;6.10;93.20
15099;DHT22;33900;53.640;9.942;2022-12-07T08:32:57;6.10;93.20
15099;DHT22;33900;53.640;9.942;2022-12-07T08:35:23;6.10;93.20
15099;DHT22;33900;53.640;9.942;2022-12-07T08:37:49;6.10;93.20
15099;DHT22;33900;53.640;9.942;2022-12-07T08:40:15;6.20;93.20
15099;DHT22;33900;53.640;9.942;2022-12-07T08:42:47;6.20;93.20
15099;DHT22;33900;53.640;9.942;2022-12-07T08:45:14;6.20;93.20
15099;DHT22;33900;53.640;9.942;2022-12-07T08:47:51;6.20;93.20
15099;DHT22;33900;53.640;9.942;2022-12-07T08:50:26;6.20;93.20
15099;DHT22;33900;53.640;9.942;2022-12-07T08:52:53;6.20;93.20
15099;DHT22;33900;53.640;9.942;2022-12-07T08:55:20;6.20;93.20
15099;DHT22;33900;53.640;9.942;2022-12-07T08:57:46;6.20;93.20
15099;DHT22;33900;53.640;9.942;2022-12-07T09:00:12;6.30;93.20
15099;DHT22;33900;53.640;9.942;2022-12-07T09:02:38;6.30;93.20
15099;DHT22;33900;53.640;9.942;2022-12-07T09:05:07;6.30;93.20
15099;DHT22;33900;53.640;9.942;2022-12-07T09:07:33;6.40;93.20
15099;DHT22;33900;53.640;9.942;2022-12-07T09:09:59;6.40;93.20
15099;DHT22;33900;53.640;9.942;2022-12-07T09:12:25;6.40;93.20
15099;DHT22;33900;53.640;9.942;2022-12-07T09:14:51;6.40;93.20
15099;DHT22;33900;53.640;9.942;2022-12-07T09:17:16;6.40;93.20
15099;DHT22;33900;53.640;9.942;2022-12-07T09:19:42;6.50;93.30
15099;DHT22;33900;53.640;9.942;2022-12-07T09:22:08;6.50;93.30
15099;DHT22;33900;53.640;9.942;2022-12-07T09:24:34;6.50;93.30
15099;DHT22;33900;53.640;9.942;2022-12-07T09:26:59;6.50;93.30
15099;DHT22;33900;53.640;9.942;2022-12-07T09:29:25;6.50;93.30
15099;DHT22;33900;53.640;9.942;2022-12-07T09:31:51;6.60;93.30
15099;DHT22;33900;53.640;9.942;2022-12-07T09:34:16;6.60;93.40
15099;DHT22;33900;53.640;9.942;2022-12-07T09:36:43;6.60;93.40
15099;DHT22;33900;53.640;9.942;2022-12-07T09:39:09;6.60;93.30
15099;DHT22;33900;53.640;9.942;2022-12-07T09:41:37;6.60;93.70
15099;DHT22;33900;53.640;9.942;2022-12-07T09:44:09;6.70;93.40
15099;DHT22;33900;53.640;9.942;2022-12-07T09:46:36;6.70;93.40
15099;DHT22;33900;53.640;9.942;2022-12-07T09:49:03;6.70;93.40
15099;DHT22;33900;53.640;9.942;2022-12-07T09:51:28;6.70;93.40
15099;DHT22;33900;53.640;9.942;2022-12-07T09:53:55;6.70;93.40
15099;DHT22;33900;53.640;9.942;2022-12-07T09:56:22;6.80;93.40
15099;DHT22;33900;53.640;9.942;2022-12-07T09:58:48;6.80;93.40
15099;DHT22;33900;53.640;9.942;2022-12-07T10:01:16;6.80;93.30
15099;DHT22;33900;53.640;9.942;2022-12-07T10:03:48;6.80;93.30
15099;DHT22;33900;53.640;9.942;2022-12-07T10:06:15;6.90;93.40
15099;DHT22;33900;53.640;9.942;2022-12-07T10:08:43;6.90;93.30
15099;DHT22;33900;53.640;9.942;2022-12-07T10:11:10;6.90;93.40
15099;DHT22;33900;53.640;9.942;2022-12-07T10:13:40;6.90;93.30
15099;DHT22;33900;53.640;9.942;2022-12-07T10:16:06;6.90;93.30
15099;DHT22;33900;53.640;9.942;2022-12-07T10:18:41;6.90;93.30
15099;DHT22;33900;53.640;9.942;2022-12-07T10:23:33;7.00;93.30
15099;DHT22;33900;53.640;9.942;2022-12-07T10:25:59;7.00;93.30
15099;DHT22;33900;53.640;9.942;2022-12-07T10:28:33;7.00;93.60
15099;DHT22;33900;53.640;9.942;2022-12-07T10:31:02;7.10;93.30
15099;DHT22;33900;53.640;9.942;2022-12-07T10:33:32;7.10;93.30
15099;DHT22;33900;53.640;9.942;2022-12-07T10:35:59;7.10;93.30
15099;DHT22;33900;53.640;9.942;2022-12-07T10:38:26;7.10;93.30
15099;DHT22;33900;53.640;9.942;2022-12-07T10:41:13;7.10;93.30
15099;DHT22;33900;53.640;9.942;2022-12-07T10:43:46;7.10;93.20
15099;DHT22;33900;53.640;9.942;2022-12-07T10:51:11;7.20;93.20
15099;DHT22;33900;53.640;9.942;2022-12-07T11:11:54;7.40;93.10
15099;DHT22;33900;53.640;9.942;2022-12-07T11:17:01;7.40;93.00
15099;DHT22;33900;53.640;9.942;2022-12-07T11:19:45;7.40;93.00
15099;DHT22;33900;53.640;9.942;2022-12-07T11:22:18;7.50;93.00
15099;DHT22;33900;53.640;9.942;2022-12-07T11:29:49;7.50;92.90
15099;DHT22;33900;53.640;9.942;2022-12-07T11:37:35;7.50;92.80
15099;DHT22;33900;53.640;9.942;2022-12-07T11:40:05;7.50;92.80
15099;DHT22;33900;53.640;9.942;2022-12-07T11:42:39;7.60;92.90
15099;DHT22;33900;53.640;9.942;2022-12-07T11:47:38;7.60;92.90
15099;DHT22;33900;53.640;9.942;2022-12-07T11:50:26;7.60;92.80
15099;DHT22;33900;53.640;9.942;2022-12-07T11:52:55;7.60;92.70
15099;DHT22;33900;53.640;9.942;2022-12-07T11:55:39;7.70;92.70
15099;DHT22;33900;53.640;9.942;2022-12-07T12:00:50;7.70;92.70
15099;DHT22;33900;53.640;9.942;2022-12-07T12:03:20;7.70;92.70
15099;DHT22;33900;53.640;9.942;2022-12-07T12:05:49;7.80;92.70
15099;DHT22;33900;53.640;9.942;2022-12-07T12:08:20;7.80;92.60
15099;DHT22;33900;53.640;9.942;2022-12-07T12:21:03;7.90;92.40
15099;DHT22;33900;53.640;9.942;2022-12-07T12:23:36;8.00;92.30
15099;DHT22;33900;53.640;9.942;2022-12-07T12:26:03;8.00;92.30
15099;DHT22;33900;53.640;9.942;2022-12-07T12:33:52;8.00;92.00
15099;DHT22;33900;53.640;9.942;2022-12-07T12:36:20;8.00;92.00
15099;DHT22;33900;53.640;9.942;2022-12-07T12:46:49;8.00;91.80
15099;DHT22;33900;53.640;9.942;2022-12-07T12:51:43;8.00;91.60
15099;DHT22;33900;53.640;9.942;2022-12-07T12:54:22;8.00;91.50
15099;DHT22;33900;53.640;9.942;2022-12-07T12:59:24;8.00;91.50
15099;DHT22;33900;53.640;9.942;2022-12-07T13:01:54;8.00;91.40
15099;DHT22;33900;53.640;9.942;2022-12-07T13:04:28;8.00;91.30
15099;DHT22;33900;53.640;9.942;2022-12-07T13:06:55;8.00;91.10
15099;DHT22;33900;53.640;9.942;2022-12-07T13:09:21;8.00;91.10
15099;DHT22;33900;53.640;9.942;2022-12-07T13:11:49;8.00;91.00
15099;DHT22;33900;53.640;9.942;2022-12-07T13:17:00;8.00;91.10
15099;DHT22;33900;53.640;9.942;2022-12-07T13:20:20;8.00;91.20
15099;DHT22;33900;53.640;9.942;2022-12-07T13:24:56;8.00;91.10
15099;DHT22;33900;53.640;9.942;2022-12-07T13:27:22;8.00;91.10
15099;DHT22;33900;53.640;9.942;2022-12-07T13:29:48;8.00;91.10
15099;DHT22;33900;53.640;9.942;2022-12-07T13:32:27;8.10;91.20
15099;DHT22;33900;53.640;9.942;2022-12-07T13:34:53;8.10;91.20
15099;DHT22;33900;53.640;9.942;2022-12-07T13:37:28;8.10;91.00
15099;DHT22;33900;53.640;9.942;2022-12-07T13:42:31;8.10;90.90
15099;DHT22;33900;53.640;9.942;2022-12-07T13:44:58;8.10;90.90
15099;DHT22;33900;53.640;9.942;2022-12-07T13:49:56;8.10;90.90
15099;DHT22;33900;53.640;9.942;2022-12-07T13:52:24;8.10;90.80
15099;DHT22;33900;53.640;9.942;2022-12-07T13:55:01;8.10;90.70
15099;DHT22;33900;53.640;9.942;2022-12-07T13:57:35;8.10;90.90
15099;DHT22;33900;53.640;9.942;2022-12-07T14:00:16;8.10;90.50
15099;DHT22;33900;53.640;9.942;2022-12-07T14:03:01;8.10;90.50
15099;DHT22;33900;53.640;9.942;2022-12-07T14:05:40;8.10;90.40
15099;DHT22;33900;53.640;9.942;2022-12-07T14:16:02;8.00;90.30
15099;DHT22;33900;53.640;9.942;2022-12-07T14:18:39;8.00;90.20
15099;DHT22;33900;53.640;9.942;2022-12-07T14:21:14;7.90;90.10
15099;DHT22;33900;53.640;9.942;2022-12-07T14:23:44;7.90;90.20
15099;DHT22;33900;53.640;9.942;2022-12-07T14:26:12;7.90;90.20
15099;DHT22;33900;53.640;9.942;2022-12-07T14:28:40;7.90;90.20
15099;DHT22;33900;53.640;9.942;2022-12-07T14:31:12;7.80;90.10
15099;DHT22;33900;53.640;9.942;2022-12-07T14:33:41;7.80;90.10
15099;DHT22;33900;53.640;9.942;2022-12-07T14:36:11;7.80;90.10
15099;DHT22;33900;53.640;9.942;2022-12-07T14:38:38;7.80;90.10
15099;DHT22;33900;53.640;9.942;2022-12-07T14:41:06;7.70;90.00
15099;DHT22;33900;53.640;9.942;2022-12-07T14:43:54;7.70;90.00
15099;DHT22;33900;53.640;9.942;2022-12-07T14:46:20;7.70;90.00
15099;DHT22;33900;53.640;9.942;2022-12-07T14:48:48;7.60;90.00
15099;DHT22;33900;53.640;9.942;2022-12-07T14:51:15;7.60;90.00
15099;DHT22;33900;53.640;9.942;2022-12-07T14:53:42;7.50;90.00
15099;DHT22;33900;53.640;9.942;2022-12-07T14:56:12;7.50;90.00
15099;DHT22;33900;53.640;9.942;2022-12-07T14:58:38;7.50;90.00
15099;DHT22;33900;53.640;9.942;2022-12-07T15:01:07;7.40;89.80
15099;DHT22;33900;53.640;9.942;2022-12-07T15:03:33;7.40;89.80
15099;DHT22;33900;53.640;9.942;2022-12-07T15:06:00;7.30;89.80
15099;DHT22;33900;53.640;9.942;2022-12-07T15:08:26;7.30;89.80
15099;DHT22;33900;53.640;9.942;2022-12-07T15:10:52;7.30;89.70
15099;DHT22;33900;53.640;9.942;2022-12-07T15:13:17;7.20;89.70
15099;DHT22;33900;53.640;9.942;2022-12-07T15:16:02;7.20;89.70
15099;DHT22;33900;53.640;9.942;2022-12-07T15:18:31;7.20;89.70
15099;DHT22;33900;53.640;9.942;2022-12-07T15:20:57;7.20;89.60
15099;DHT22;33900;53.640;9.942;2022-12-07T15:23:22;7.10;89.50
15099;DHT22;33900;53.640;9.942;2022-12-07T15:25:48;7.10;89.50
15099;DHT22;33900;53.640;9.942;2022-12-07T15:28:14;7.10;89.40
15099;DHT22;33900;53.640;9.942;2022-12-07T15:30:41;7.00;89.40
15099;DHT22;33900;53.640;9.942;2022-12-07T15:33:07;7.00;89.30
15099;DHT22;33900;53.640;9.942;2022-12-07T15:35:33;7.00;89.30
15099;DHT22;33900;53.640;9.942;2022-12-07T15:38:00;7.00;89.20
15099;DHT22;33900;53.640;9.942;2022-12-07T15:40:37;6.90;89.10
15099;DHT22;33900;53.640;9.942;2022-12-07T15:43:03;6.90;89.00
15099;DHT22;33900;53.640;9.942;2022-12-07T15:45:29;6.80;88.90
15099;DHT22;33900;53.640;9.942;2022-12-07T15:47:55;6.80;88.90
15099;DHT22;33900;53.640;9.942;2022-12-07T15:50:23;6.80;89.00
15099;DHT22;33900;53.640;9.942;2022-12-07T15:52:49;6.70;88.80
15099;DHT22;33900;53.640;9.942;2022-12-07T15:55:14;6.70;88.80
15099;DHT22;33900;53.640;9.942;2022-12-07T15:57:41;6.70;88.80
15099;DHT22;33900;53.640;9.942;2022-12-07T16:00:07;6.60;88.80
15099;DHT22;33900;53.640;9.942;2022-12-07T16:02:34;6.60;88.70
15099;DHT22;33900;53.640;9.942;2022-12-07T16:05:04;6.60;88.70
15099;DHT22;33900;53.640;9.942;2022-12-07T16:07:30;6.60;88.70
15099;DHT22;33900;53.640;9.942;2022-12-07T16:09:56;6.50;88.70
15099;DHT22;33900;53.640;9.942;2022-12-07T16:12:22;6.50;88.70
15099;DHT22;33900;53.640;9.942;2022-12-07T16:14:48;6.50;88.80
15099;DHT22;33900;53.640;9.942;2022-12-07T16:17:16;6.40;88.80
15099;DHT22;33900;53.640;9.942;2022-12-07T16:19:50;6.40;88.80
15099;DHT22;33900;53.640;9.942;2022-12-07T16:22:18;6.40;88.70
15099;DHT22;33900;53.640;9.942;2022-12-07T16:24:46;6.40;88.80
15099;DHT22;33900;53.640;9.942;2022-12-07T16:27:13;6.30;88.90
15099;DHT22;33900;53.640;9.942;2022-12-07T16:29:41;6.30;88.80
15099;DHT22;33900;53.640;9.942;2022-12-07T16:32:08;6.30;88.90
15099;DHT22;33900;53.640;9.942;2022-12-07T16:34:34;6.30;88.90
15099;DHT22;33900;53.640;9.942;2022-12-07T16:37:00;6.20;88.80
15099;DHT22;33900;53.640;9.942;2022-12-07T16:39:26;6.20;88.70
15099;DHT22;33900;53.640;9.942;2022-12-07T16:41:53;6.20;88.80
15099;DHT22;33900;53.640;9.942;2022-12-07T16:44:19;6.10;88.70
15099;DHT22;33900;53.640;9.942;2022-12-07T16:46:47;6.10;88.70
15099;DHT22;33900;53.640;9.942;2022-12-07T16:49:13;6.10;88.70
15099;DHT22;33900;53.640;9.942;2022-12-07T16:51:39;6.00;88.70
15099;DHT22;33900;53.640;9.942;2022-12-07T16:54:06;6.00;88.70
15099;DHT22;33900;53.640;9.942;2022-12-07T16:56:32;6.00;88.70
15099;DHT22;33900;53.640;9.942;2022-12-07T16:59:01;5.90;88.70
15099;DHT22;33900;53.640;9.942;2022-12-07T17:01:27;5.90;88.70
15099;DHT22;33900;53.640;9.942;2022-12-07T17:03:53;5.90;88.80
15099;DHT22;33900;53.640;9.942;2022-12-07T17:06:26;5.90;88.80
15099;DHT22;33900;53.640;9.942;2022-12-07T17:08:53;5.80;88.80
15099;DHT22;33900;53.640;9.942;2022-12-07T17:11:23;5.80;88.90
15099;DHT22;33900;53.640;9.942;2022-12-07T17:13:50;5.80;88.90
15099;DHT22;33900;53.640;9.942;2022-12-07T17:16:34;5.80;88.90
15099;DHT22;33900;53.640;9.942;2022-12-07T17:19:03;5.80;88.90
15099;DHT22;33900;53.640;9.942;2022-12-07T17:21:31;5.70;88.90
15099;DHT22;33900;53.640;9.942;2022-12-07T17:23:58;5.70;89.00
15099;DHT22;33900;53.640;9.942;2022-12-07T17:26:25;5.70;89.10
15099;DHT22;33900;53.640;9.942;2022-12-07T17:28:52;5.70;89.10
15099;DHT22;33900;53.640;9.942;2022-12-07T17:31:18;5.70;89.20
15099;DHT22;33900;53.640;9.942;2022-12-07T17:33:47;5.70;89.20
15099;DHT22;33900;53.640;9.942;2022-12-07T17:36:22;5.70;89.30
15099;DHT22;33900;53.640;9.942;2022-12-07T17:38:49;5.70;89.40
15099;DHT22;33900;53.640;9.942;2022-12-07T17:44:04;5.60;89.50
15099;DHT22;33900;53.640;9.942;2022-12-07T17:46:30;5.70;89.70
15099;DHT22;33900;53.640;9.942;2022-12-07T17:48:57;5.60;89.80
15099;DHT22;33900;53.640;9.942;2022-12-07T17:51:23;5.60;89.90